sensor_id;sensor_type;location;lat;lon;timestamp;temperature;humidity
68511;SHT31;55512;50.102;19.958;2023-05-23T00:00:05;17.45;49.84
68511;SHT31;55512;50.102;19.958;2023-05-23T00:02:31;17.42;49.86
68511;SHT31;55512;50.102;19.958;2023-05-23T00:04:57;17.42;49.90
68511;SHT31;55512;50.102;19.958;2023-05-23T00:07:23;17.42;49.90
68511;SHT31;55512;50.102;19.958;2023-05-23T00:09:49;17.42;49.91
68511;SHT31;55512;50.102;19.958;2023-05-23T00:12:14;17.42;49.95
68511;SHT31;55512;50.102;19.958;2023-05-23T00:14:39;17.38;50.08
68511;SHT31;55512;50.102;19.958;2023-05-23T00:17:05;17.37;50.04
68511;SHT31;55512;50.102;19.958;2023-05-23T00:19:32;17.35;50.06
68511;SHT31;55512;50.102;19.958;2023-05-23T00:22:00;17.32;50.14
68511;SHT31;55512;50.102;19.958;2023-05-23T00:24:27;17.27;50.31
68511;SHT31;55512;50.102;19.958;2023-05-23T00:26:53;17.24;50.34
68511;SHT31;55512;50.102;19.958;2023-05-23T00:29:18;17.22;50.49
68511;SHT31;55512;50.102;19.958;2023-05-23T00:31:44;17.19;50.60
68511;SHT31;55512;50.102;19.958;2023-05-23T00:34:14;17.19;50.61
68511;SHT31;55512;50.102;19.958;2023-05-23T00:36:41;17.17;50.73
68511;SHT31;55512;50.102;19.958;2023-05-23T00:39:11;17.13;50.82
68511;SHT31;55512;50.102;19.958;2023-05-23T00:41:43;17.11;50.86
68511;SHT31;55512;50.102;19.958;2023-05-23T00:44:11;17.10;50.94
68511;SHT31;55512;50.102;19.958;2023-05-23T00:46:37;17.06;51.01
68511;SHT31;55512;50.102;19.958;2023-05-23T00:49:02;17.01;51.14
68511;SHT31;55512;50.102;19.958;2023-05-23T00:51:28;16.96;51.20
68511;SHT31;55512;50.102;19.958;2023-05-23T00:53:55;16.92;51.29
68511;SHT31;55512;50.102;19.958;2023-05-23T00:56:24;16.91;51.26
68511;SHT31;55512;50.102;19.958;2023-05-23T00:58:50;16.89;51.29
68511;SHT31;55512;50.102;19.958;2023-05-23T01:01:17;16.82;51.38
68511;SHT31;55512;50.102;19.958;2023-05-23T01:03:43;16.75;51.54
68511;SHT31;55512;50.102;19.958;2023-05-23T01:06:09;16.66;51.76
68511;SHT31;55512;50.102;19.958;2023-05-23T01:08:35;16.58;51.94
68511;SHT31;55512;50.102;19.958;2023-05-23T01:11:03;16.53;52.16
68511;SHT31;55512;50.102;19.958;2023-05-23T01:13:39;16.43;52.37
68511;SHT31;55512;50.102;19.958;2023-05-23T01:16:18;16.35;52.55
68511;SHT31;55512;50.102;19.958;2023-05-23T01:21:53;16.25;52.87
68511;SHT31;55512;50.102;19.958;2023-05-23T01:30:16;16.10;53.48
68511;SHT31;55512;50.102;19.958;2023-05-23T01:32:45;16.06;53.51
68511;SHT31;55512;50.102;19.958;2023-05-23T01:35:17;16.03;53.68
68511;SHT31;55512;50.102;19.958;2023-05-23T01:37:51;15.98;53.67
68511;SHT31;55512;50.102;19.958;2023-05-23T01:40:20;15.91;53.89
68511;SHT31;55512;50.102;19.958;2023-05-23T01:42:48;15.82;53.94
68511;SHT31;55512;50.102;19.958;2023-05-23T01:45:14;15.78;54.14
68511;SHT31;55512;50.102;19.958;2023-05-23T01:47:41;15.67;54.46
68511;SHT31;55512;50.102;19.958;2023-05-23T01:50:09;15.57;54.72
68511;SHT31;55512;50.102;19.958;2023-05-23T01:52:36;15.48;54.95
68511;SHT31;55512;50.102;19.958;2023-05-23T01:55:02;15.35;55.27
68511;SHT31;55512;50.102;19.958;2023-05-23T01:57:35;15.24;55.58
68511;SHT31;55512;50.102;19.958;2023-05-23T02:00:03;15.12;55.86
68511;SHT31;55512;50.102;19.958;2023-05-23T02:02:35;15.02;56.14
68511;SHT31;55512;50.102;19.958;2023-05-23T02:05:01;14.90;56.47
68511;SHT31;55512;50.102;19.958;2023-05-23T02:07:26;14.75;56.92
68511;SHT31;55512;50.102;19.958;2023-05-23T02:12:33;14.49;57.54
68511;SHT31;55512;50.102;19.958;2023-05-23T02:14:59;14.35;57.86
68511;SHT31;55512;50.102;19.958;2023-05-23T02:17:25;14.24;58.23
68511;SHT31;55512;50.102;19.958;2023-05-23T02:19:51;14.16;58.43
68511;SHT31;55512;50.102;19.958;2023-05-23T02:22:17;14.10;58.56
68511;SHT31;55512;50.102;19.958;2023-05-23T02:24:46;14.09;58.59
68511;SHT31;55512;50.102;19.958;2023-05-23T02:27:13;14.05;58.72
68511;SHT31;55512;50.102;19.958;2023-05-23T02:29:39;13.98;58.89
68511;SHT31;55512;50.102;19.958;2023-05-23T02:32:04;13.95;58.99
68511;SHT31;55512;50.102;19.958;2023-05-23T02:34:30;13.92;59.08
68511;SHT31;55512;50.102;19.958;2023-05-23T02:36:56;13.89;59.10
68511;SHT31;55512;50.102;19.958;2023-05-23T02:39:21;13.88;59.17
68511;SHT31;55512;50.102;19.958;2023-05-23T02:41:47;13.90;59.34
68511;SHT31;55512;50.102;19.958;2023-05-23T02:44:12;13.86;59.48
68511;SHT31;55512;50.102;19.958;2023-05-23T02:46:38;13.84;59.50
68511;SHT31;55512;50.102;19.958;2023-05-23T02:49:04;13.83;59.59
68511;SHT31;55512;50.102;19.958;2023-05-23T02:51:30;13.76;59.79
68511;SHT31;55512;50.102;19.958;2023-05-23T02:53:56;13.69;59.81
68511;SHT31;55512;50.102;19.958;2023-05-23T02:56:22;13.69;59.80
68511;SHT31;55512;50.102;19.958;2023-05-23T02:58:47;13.68;59.89
68511;SHT31;55512;50.102;19.958;2023-05-23T03:01:13;13.69;59.96
68511;SHT31;55512;50.102;19.958;2023-05-23T03:03:38;13.71;59.90
68511;SHT31;55512;50.102;19.958;2023-05-23T03:06:05;13.72;59.92
68511;SHT31;55512;50.102;19.958;2023-05-23T03:08:34;13.76;59.94
68511;SHT31;55512;50.102;19.958;2023-05-23T03:11:00;13.77;59.93
68511;SHT31;55512;50.102;19.958;2023-05-23T03:13:27;13.82;59.94
68511;SHT31;55512;50.102;19.958;2023-05-23T03:15:52;13.87;59.82
68511;SHT31;55512;50.102;19.958;2023-05-23T03:18:18;13.93;59.70
68511;SHT31;55512;50.102;19.958;2023-05-23T03:20:43;14.00;59.62
68511;SHT31;55512;50.102;19.958;2023-05-23T03:23:09;14.06;59.52
68511;SHT31;55512;50.102;19.958;2023-05-23T03:25:34;14.13;59.43
68511;SHT31;55512;50.102;19.958;2023-05-23T03:28:00;14.18;59.31
68511;SHT31;55512;50.102;19.958;2023-05-23T03:30:25;14.20;59.25
68511;SHT31;55512;50.102;19.958;2023-05-23T03:32:51;14.23;59.20
68511;SHT31;55512;50.102;19.958;2023-05-23T03:35:17;14.26;59.10
68511;SHT31;55512;50.102;19.958;2023-05-23T03:37:43;14.31;59.11
68511;SHT31;55512;50.102;19.958;2023-05-23T03:40:08;14.35;59.13
68511;SHT31;55512;50.102;19.958;2023-05-23T03:42:35;14.37;58.98
68511;SHT31;55512;50.102;19.958;2023-05-23T03:45:02;14.41;58.82
68511;SHT31;55512;50.102;19.958;2023-05-23T03:47:29;14.45;58.80
68511;SHT31;55512;50.102;19.958;2023-05-23T03:49:55;14.50;58.71
68511;SHT31;55512;50.102;19.958;2023-05-23T03:52:21;14.53;58.71
68511;SHT31;55512;50.102;19.958;2023-05-23T03:54:47;14.56;58.64
68511;SHT31;55512;50.102;19.958;2023-05-23T03:57:12;14.58;58.66
68511;SHT31;55512;50.102;19.958;2023-05-23T03:59:38;14.60;58.63
68511;SHT31;55512;50.102;19.958;2023-05-23T04:02:04;14.63;58.49
68511;SHT31;55512;50.102;19.958;2023-05-23T04:04:30;14.68;58.49
68511;SHT31;55512;50.102;19.958;2023-05-23T04:06:56;14.70;58.37
68511;SHT31;55512;50.102;19.958;2023-05-23T04:09:22;14.74;58.39
68511;SHT31;55512;50.102;19.958;2023-05-23T04:11:48;14.77;58.30
68511;SHT31;55512;50.102;19.958;2023-05-23T04:14:13;14.86;58.23
68511;SHT31;55512;50.102;19.958;2023-05-23T04:16:39;14.90;58.24
68511;SHT31;55512;50.102;19.958;2023-05-23T04:19:06;14.97;58.21
68511;SHT31;55512;50.102;19.958;2023-05-23T04:21:32;15.05;58.05
68511;SHT31;55512;50.102;19.958;2023-05-23T04:23:59;15.13;57.89
68511;SHT31;55512;50.102;19.958;2023-05-23T04:26:26;15.22;57.69
68511;SHT31;55512;50.102;19.958;2023-05-23T04:28:51;15.29;57.64
68511;SHT31;55512;50.102;19.958;2023-05-23T04:31:18;15.37;57.54
68511;SHT31;55512;50.102;19.958;2023-05-23T04:33:48;15.44;57.39
68511;SHT31;55512;50.102;19.958;2023-05-23T04:36:13;15.51;57.24
68511;SHT31;55512;50.102;19.958;2023-05-23T04:38:40;15.58;57.20
68511;SHT31;55512;50.102;19.958;2023-05-23T04:44:00;15.71;56.99
68511;SHT31;55512;50.102;19.958;2023-05-23T04:46:26;15.77;56.90
68511;SHT31;55512;50.102;19.958;2023-05-23T04:48:52;15.78;56.90
68511;SHT31;55512;50.102;19.958;2023-05-23T04:51:19;15.86;56.90
68511;SHT31;55512;50.102;19.958;2023-05-23T04:53:46;15.94;56.80
68511;SHT31;55512;50.102;19.958;2023-05-23T04:56:13;16.03;56.71
68511;SHT31;55512;50.102;19.958;2023-05-23T04:58:42;16.14;56.44
68511;SHT31;55512;50.102;19.958;2023-05-23T05:01:09;16.22;56.17
68511;SHT31;55512;50.102;19.958;2023-05-23T05:03:35;16.30;56.01
68511;SHT31;55512;50.102;19.958;2023-05-23T05:06:02;16.33;55.95
68511;SHT31;55512;50.102;19.958;2023-05-23T05:08:28;16.37;55.89
68511;SHT31;55512;50.102;19.958;2023-05-23T05:10:53;16.44;55.85
68511;SHT31;55512;50.102;19.958;2023-05-23T05:13:19;16.51;55.72
68511;SHT31;55512;50.102;19.958;2023-05-23T05:15:45;16.58;55.65
68511;SHT31;55512;50.102;19.958;2023-05-23T05:18:11;16.64;55.60
68511;SHT31;55512;50.102;19.958;2023-05-23T05:20:37;16.68;55.55
68511;SHT31;55512;50.102;19.958;2023-05-23T05:23:03;16.72;55.43
68511;SHT31;55512;50.102;19.958;2023-05-23T05:25:29;16.76;55.30
68511;SHT31;55512;50.102;19.958;2023-05-23T05:27:59;16.79;55.39
68511;SHT31;55512;50.102;19.958;2023-05-23T05:30:30;16.84;55.38
68511;SHT31;55512;50.102;19.958;2023-05-23T05:33:03;16.91;55.26
68511;SHT31;55512;50.102;19.958;2023-05-23T05:35:33;16.97;55.19
68511;SHT31;55512;50.102;19.958;2023-05-23T05:37:59;16.99;55.13
68511;SHT31;55512;50.102;19.958;2023-05-23T05:40:26;17.03;55.05
68511;SHT31;55512;50.102;19.958;2023-05-23T05:42:52;17.06;54.97
68511;SHT31;55512;50.102;19.958;2023-05-23T05:45:18;17.11;54.91
68511;SHT31;55512;50.102;19.958;2023-05-23T05:47:44;17.16;54.76
68511;SHT31;55512;50.102;19.958;2023-05-23T05:50:10;17.21;54.72
68511;SHT31;55512;50.102;19.958;2023-05-23T05:52:36;17.26;54.84
68511;SHT31;55512;50.102;19.958;2023-05-23T05:55:07;17.31;54.88
68511;SHT31;55512;50.102;19.958;2023-05-23T05:57:38;17.37;54.83
68511;SHT31;55512;50.102;19.958;2023-05-23T06:00:08;17.28;55.30
68511;SHT31;55512;50.102;19.958;2023-05-23T06:02:42;17.23;55.75
68511;SHT31;55512;50.102;19.958;2023-05-23T06:05:26;17.27;55.86
68511;SHT31;55512;50.102;19.958;2023-05-23T06:08:01;17.30;56.08
68511;SHT31;55512;50.102;19.958;2023-05-23T06:10:27;17.35;56.08
68511;SHT31;55512;50.102;19.958;2023-05-23T06:12:53;17.38;55.90
68511;SHT31;55512;50.102;19.958;2023-05-23T06:15:19;17.42;55.68
68511;SHT31;55512;50.102;19.958;2023-05-23T06:17:45;17.45;55.63
68511;SHT31;55512;50.102;19.958;2023-05-23T06:20:11;17.49;55.54
68511;SHT31;55512;50.102;19.958;2023-05-23T06:22:37;17.52;55.52
68511;SHT31;55512;50.102;19.958;2023-05-23T06:25:03;17.56;55.48
68511;SHT31;55512;50.102;19.958;2023-05-23T06:27:30;17.60;55.27
68511;SHT31;55512;50.102;19.958;2023-05-23T06:29:55;17.64;55.39
68511;SHT31;55512;50.102;19.958;2023-05-23T06:32:21;17.87;54.71
68511;SHT31;55512;50.102;19.958;2023-05-23T06:34:46;17.91;54.80
68511;SHT31;55512;50.102;19.958;2023-05-23T06:37:12;17.95;54.82
68511;SHT31;55512;50.102;19.958;2023-05-23T06:39:38;17.99;55.09
68511;SHT31;55512;50.102;19.958;2023-05-23T06:42:03;18.04;55.03
68511;SHT31;55512;50.102;19.958;2023-05-23T06:44:29;18.09;54.83
68511;SHT31;55512;50.102;19.958;2023-05-23T06:46:55;18.16;54.20
68511;SHT31;55512;50.102;19.958;2023-05-23T06:49:23;18.24;53.67
68511;SHT31;55512;50.102;19.958;2023-05-23T06:51:49;18.29;53.76
68511;SHT31;55512;50.102;19.958;2023-05-23T06:54:16;18.35;53.93
68511;SHT31;55512;50.102;19.958;2023-05-23T06:56:42;18.41;54.22
68511;SHT31;55512;50.102;19.958;2023-05-23T06:59:08;18.44;54.09
68511;SHT31;55512;50.102;19.958;2023-05-23T07:01:33;18.50;53.83
68511;SHT31;55512;50.102;19.958;2023-05-23T07:03:59;18.55;53.96
68511;SHT31;55512;50.102;19.958;2023-05-23T07:06:25;18.62;54.13
68511;SHT31;55512;50.102;19.958;2023-05-23T07:08:53;18.68;53.79
68511;SHT31;55512;50.102;19.958;2023-05-23T07:11:22;18.76;53.58
68511;SHT31;55512;50.102;19.958;2023-05-23T07:13:48;18.82;53.43
68511;SHT31;55512;50.102;19.958;2023-05-23T07:16:14;18.90;53.22
68511;SHT31;55512;50.102;19.958;2023-05-23T07:18:39;18.99;53.04
68511;SHT31;55512;50.102;19.958;2023-05-23T07:21:05;19.07;52.64
68511;SHT31;55512;50.102;19.958;2023-05-23T07:23:31;19.13;52.41
68511;SHT31;55512;50.102;19.958;2023-05-23T07:25:58;19.20;52.28
68511;SHT31;55512;50.102;19.958;2023-05-23T07:28:25;19.27;52.07
68511;SHT31;55512;50.102;19.958;2023-05-23T07:30:51;19.33;51.91
68511;SHT31;55512;50.102;19.958;2023-05-23T07:33:16;19.40;51.78
68511;SHT31;55512;50.102;19.958;2023-05-23T07:35:42;19.46;51.48
68511;SHT31;55512;50.102;19.958;2023-05-23T07:38:08;19.52;51.40
68511;SHT31;55512;50.102;19.958;2023-05-23T07:40:34;19.59;51.58
68511;SHT31;55512;50.102;19.958;2023-05-23T07:43:01;19.67;51.76
68511;SHT31;55512;50.102;19.958;2023-05-23T07:45:27;19.73;51.76
68511;SHT31;55512;50.102;19.958;2023-05-23T07:47:52;19.75;51.83
68511;SHT31;55512;50.102;19.958;2023-05-23T07:50:18;19.79;52.07
68511;SHT31;55512;50.102;19.958;2023-05-23T07:52:44;19.85;52.03
68511;SHT31;55512;50.102;19.958;2023-05-23T07:55:09;19.93;52.16
68511;SHT31;55512;50.102;19.958;2023-05-23T07:57:35;19.98;51.79
68511;SHT31;55512;50.102;19.958;2023-05-23T08:00:00;20.03;51.25
68511;SHT31;55512;50.102;19.958;2023-05-23T08:02:26;20.04;51.35
68511;SHT31;55512;50.102;19.958;2023-05-23T08:04:52;20.06;51.58
68511;SHT31;55512;50.102;19.958;2023-05-23T08:07:18;20.15;51.49
68511;SHT31;55512;50.102;19.958;2023-05-23T08:09:45;20.21;51.21
68511;SHT31;55512;50.102;19.958;2023-05-23T08:12:15;20.29;51.04
68511;SHT31;55512;50.102;19.958;2023-05-23T08:14:40;20.33;51.18
68511;SHT31;55512;50.102;19.958;2023-05-23T08:17:06;20.41;50.66
68511;SHT31;55512;50.102;19.958;2023-05-23T08:19:32;20.48;50.22
68511;SHT31;55512;50.102;19.958;2023-05-23T08:21:57;20.58;50.13
68511;SHT31;55512;50.102;19.958;2023-05-23T08:24:23;20.65;49.91
68511;SHT31;55512;50.102;19.958;2023-05-23T08:26:48;20.72;49.94
68511;SHT31;55512;50.102;19.958;2023-05-23T08:29:14;20.82;49.91
68511;SHT31;55512;50.102;19.958;2023-05-23T08:31:40;20.91;49.66
68511;SHT31;55512;50.102;19.958;2023-05-23T08:34:06;21.01;49.16
68511;SHT31;55512;50.102;19.958;2023-05-23T08:36:32;21.10;48.56
68511;SHT31;55512;50.102;19.958;2023-05-23T08:39:00;21.19;48.02
68511;SHT31;55512;50.102;19.958;2023-05-23T08:41:28;21.28;47.65
68511;SHT31;55512;50.102;19.958;2023-05-23T08:43:54;21.39;47.69
68511;SHT31;55512;50.102;19.958;2023-05-23T08:46:21;21.48;47.52
68511;SHT31;55512;50.102;19.958;2023-05-23T08:48:52;21.57;47.30
68511;SHT31;55512;50.102;19.958;2023-05-23T08:51:24;21.65;46.90
68511;SHT31;55512;50.102;19.958;2023-05-23T08:53:51;21.72;46.96
68511;SHT31;55512;50.102;19.958;2023-05-23T08:56:20;21.80;46.54
68511;SHT31;55512;50.102;19.958;2023-05-23T08:58:47;21.89;46.36
68511;SHT31;55512;50.102;19.958;2023-05-23T09:01:13;21.97;45.61
68511;SHT31;55512;50.102;19.958;2023-05-23T09:03:42;22.03;45.70
68511;SHT31;55512;50.102;19.958;2023-05-23T09:06:09;22.11;45.79
68511;SHT31;55512;50.102;19.958;2023-05-23T09:08:35;22.18;45.62
68511;SHT31;55512;50.102;19.958;2023-05-23T09:11:02;22.27;45.49
68511;SHT31;55512;50.102;19.958;2023-05-23T09:13:30;22.34;44.95
68511;SHT31;55512;50.102;19.958;2023-05-23T09:18:42;22.23;45.06
68511;SHT31;55512;50.102;19.958;2023-05-23T09:21:09;22.46;44.83
68511;SHT31;55512;50.102;19.958;2023-05-23T09:23:37;22.57;44.44
68511;SHT31;55512;50.102;19.958;2023-05-23T09:26:10;22.66;44.09
68511;SHT31;55512;50.102;19.958;2023-05-23T09:28:40;22.73;44.07
68511;SHT31;55512;50.102;19.958;2023-05-23T09:31:07;22.82;44.08
68511;SHT31;55512;50.102;19.958;2023-05-23T09:33:46;22.92;43.87
68511;SHT31;55512;50.102;19.958;2023-05-23T09:36:16;22.97;43.47
68511;SHT31;55512;50.102;19.958;2023-05-23T09:38:46;23.00;43.17
68511;SHT31;55512;50.102;19.958;2023-05-23T09:41:18;23.03;43.31
68511;SHT31;55512;50.102;19.958;2023-05-23T09:43:48;23.12;43.02
68511;SHT31;55512;50.102;19.958;2023-05-23T09:46:19;23.21;42.92
68511;SHT31;55512;50.102;19.958;2023-05-23T09:48:46;23.29;42.65
68511;SHT31;55512;50.102;19.958;2023-05-23T09:51:16;23.16;42.87
68511;SHT31;55512;50.102;19.958;2023-05-23T09:53:47;23.16;42.99
68511;SHT31;55512;50.102;19.958;2023-05-23T09:56:17;23.21;42.82
68511;SHT31;55512;50.102;19.958;2023-05-23T09:58:45;23.29;41.77
68511;SHT31;55512;50.102;19.958;2023-05-23T10:01:12;23.33;42.05
68511;SHT31;55512;50.102;19.958;2023-05-23T10:06:25;23.42;42.17
68511;SHT31;55512;50.102;19.958;2023-05-23T10:14:01;23.62;42.13
68511;SHT31;55512;50.102;19.958;2023-05-23T10:19:30;23.72;41.92
68511;SHT31;55512;50.102;19.958;2023-05-23T10:22:22;23.77;42.49
68511;SHT31;55512;50.102;19.958;2023-05-23T10:24:49;23.85;42.22
68511;SHT31;55512;50.102;19.958;2023-05-23T10:27:15;23.95;41.26
68511;SHT31;55512;50.102;19.958;2023-05-23T10:29:41;24.04;41.21
68511;SHT31;55512;50.102;19.958;2023-05-23T10:32:08;24.12;40.73
68511;SHT31;55512;50.102;19.958;2023-05-23T10:34:39;24.20;40.47
68511;SHT31;55512;50.102;19.958;2023-05-23T10:37:23;24.25;40.00
68511;SHT31;55512;50.102;19.958;2023-05-23T10:40:00;24.32;39.83
68511;SHT31;55512;50.102;19.958;2023-05-23T10:45:22;24.48;38.62
68511;SHT31;55512;50.102;19.958;2023-05-23T10:47:49;24.55;38.57
68511;SHT31;55512;50.102;19.958;2023-05-23T10:50:29;24.59;38.46
68511;SHT31;55512;50.102;19.958;2023-05-23T10:53:01;24.64;38.71
68511;SHT31;55512;50.102;19.958;2023-05-23T10:55:32;24.68;38.26
68511;SHT31;55512;50.102;19.958;2023-05-23T11:01:07;24.83;38.63
68511;SHT31;55512;50.102;19.958;2023-05-23T11:09:16;25.11;37.64
68511;SHT31;55512;50.102;19.958;2023-05-23T11:15:17;25.17;37.90
68511;SHT31;55512;50.102;19.958;2023-05-23T11:20:03;25.25;38.48
68511;SHT31;55512;50.102;19.958;2023-05-23T11:22:33;25.36;38.24
68511;SHT31;55512;50.102;19.958;2023-05-23T11:25:00;25.40;37.79
68511;SHT31;55512;50.102;19.958;2023-05-23T11:27:31;25.45;37.69
68511;SHT31;55512;50.102;19.958;2023-05-23T11:32:39;25.65;37.35
68511;SHT31;55512;50.102;19.958;2023-05-23T11:35:09;25.75;37.31
68511;SHT31;55512;50.102;19.958;2023-05-23T11:37:37;25.86;36.94
68511;SHT31;55512;50.102;19.958;2023-05-23T11:43:03;26.00;35.92
68511;SHT31;55512;50.102;19.958;2023-05-23T11:45:38;26.07;36.48
68511;SHT31;55512;50.102;19.958;2023-05-23T11:48:05;26.20;36.43
68511;SHT31;55512;50.102;19.958;2023-05-23T11:50:31;26.32;35.99
68511;SHT31;55512;50.102;19.958;2023-05-23T11:52:57;26.45;35.73
68511;SHT31;55512;50.102;19.958;2023-05-23T11:55:24;26.56;35.08
68511;SHT31;55512;50.102;19.958;2023-05-23T11:57:50;26.64;34.70
68511;SHT31;55512;50.102;19.958;2023-05-23T12:00:16;26.71;34.73
68511;SHT31;55512;50.102;19.958;2023-05-23T12:02:43;26.84;34.63
68511;SHT31;55512;50.102;19.958;2023-05-23T12:05:13;26.98;34.40
68511;SHT31;55512;50.102;19.958;2023-05-23T12:07:39;27.08;34.32
68511;SHT31;55512;50.102;19.958;2023-05-23T12:10:15;27.19;33.72
68511;SHT31;55512;50.102;19.958;2023-05-23T12:12:43;27.34;33.37
68511;SHT31;55512;50.102;19.958;2023-05-23T12:15:09;27.49;32.87
68511;SHT31;55512;50.102;19.958;2023-05-23T12:17:37;27.58;32.44
68511;SHT31;55512;50.102;19.958;2023-05-23T12:20:04;27.70;32.18
68511;SHT31;55512;50.102;19.958;2023-05-23T12:22:31;27.79;32.20
68511;SHT31;55512;50.102;19.958;2023-05-23T12:24:57;27.91;32.70
68511;SHT31;55512;50.102;19.958;2023-05-23T12:27:26;27.98;32.02
68511;SHT31;55512;50.102;19.958;2023-05-23T12:30:03;27.92;31.84
68511;SHT31;55512;50.102;19.958;2023-05-23T12:32:31;27.95;32.53
68511;SHT31;55512;50.102;19.958;2023-05-23T12:34:57;28.14;31.86
68511;SHT31;55512;50.102;19.958;2023-05-23T12:37:23;28.32;31.03
68511;SHT31;55512;50.102;19.958;2023-05-23T12:39:49;28.42;30.77
68511;SHT31;55512;50.102;19.958;2023-05-23T12:42:15;28.54;31.43
68511;SHT31;55512;50.102;19.958;2023-05-23T12:44:41;28.76;31.66
68511;SHT31;55512;50.102;19.958;2023-05-23T12:47:11;28.96;31.32
68511;SHT31;55512;50.102;19.958;2023-05-23T12:49:37;29.09;30.81
68511;SHT31;55512;50.102;19.958;2023-05-23T12:52:02;29.19;30.51
68511;SHT31;55512;50.102;19.958;2023-05-23T12:54:28;29.31;30.47
68511;SHT31;55512;50.102;19.958;2023-05-23T12:56:53;29.49;30.00
68511;SHT31;55512;50.102;19.958;2023-05-23T12:59:19;29.60;29.82
68511;SHT31;55512;50.102;19.958;2023-05-23T13:01:45;29.63;29.86
68511;SHT31;55512;50.102;19.958;2023-05-23T13:04:11;29.76;30.09
68511;SHT31;55512;50.102;19.958;2023-05-23T13:06:36;29.97;30.11
68511;SHT31;55512;50.102;19.958;2023-05-23T13:09:02;30.18;29.72
68511;SHT31;55512;50.102;19.958;2023-05-23T13:11:28;30.36;28.73
68511;SHT31;55512;50.102;19.958;2023-05-23T13:13:55;30.33;28.63
68511;SHT31;55512;50.102;19.958;2023-05-23T13:16:21;30.46;28.68
68511;SHT31;55512;50.102;19.958;2023-05-23T13:18:47;30.62;28.15
68511;SHT31;55512;50.102;19.958;2023-05-23T13:21:12;30.66;27.66
68511;SHT31;55512;50.102;19.958;2023-05-23T13:23:38;30.68;27.76
68511;SHT31;55512;50.102;19.958;2023-05-23T13:26:04;30.70;27.67
68511;SHT31;55512;50.102;19.958;2023-05-23T13:28:30;30.63;27.81
68511;SHT31;55512;50.102;19.958;2023-05-23T13:30:56;30.56;28.17
68511;SHT31;55512;50.102;19.958;2023-05-23T13:33:22;30.57;28.23
68511;SHT31;55512;50.102;19.958;2023-05-23T13:35:48;30.56;28.33
68511;SHT31;55512;50.102;19.958;2023-05-23T13:38:16;30.55;28.01
68511;SHT31;55512;50.102;19.958;2023-05-23T13:40:43;30.48;28.16
68511;SHT31;55512;50.102;19.958;2023-05-23T13:43:08;30.38;28.42
68511;SHT31;55512;50.102;19.958;2023-05-23T13:45:34;30.37;28.37
68511;SHT31;55512;50.102;19.958;2023-05-23T13:47:59;30.33;28.50
68511;SHT31;55512;50.102;19.958;2023-05-23T13:50:25;30.31;28.74
68511;SHT31;55512;50.102;19.958;2023-05-23T13:52:51;30.34;28.87
68511;SHT31;55512;50.102;19.958;2023-05-23T13:55:16;30.40;28.84
68511;SHT31;55512;50.102;19.958;2023-05-23T13:57:42;30.42;28.79
68511;SHT31;55512;50.102;19.958;2023-05-23T14:00:09;30.47;28.73
68511;SHT31;55512;50.102;19.958;2023-05-23T14:02:36;30.44;28.46
68511;SHT31;55512;50.102;19.958;2023-05-23T14:05:02;30.37;28.48
68511;SHT31;55512;50.102;19.958;2023-05-23T14:07:28;30.37;28.30
68511;SHT31;55512;50.102;19.958;2023-05-23T14:09:53;30.37;27.98
68511;SHT31;55512;50.102;19.958;2023-05-23T14:12:19;30.35;27.59
68511;SHT31;55512;50.102;19.958;2023-05-23T14:14:44;30.34;27.92
68511;SHT31;55512;50.102;19.958;2023-05-23T14:17:14;30.34;28.29
68511;SHT31;55512;50.102;19.958;2023-05-23T14:19:40;30.41;28.16
68511;SHT31;55512;50.102;19.958;2023-05-23T14:22:06;30.54;27.93
68511;SHT31;55512;50.102;19.958;2023-05-23T14:24:31;30.73;27.36
68511;SHT31;55512;50.102;19.958;2023-05-23T14:26:57;30.87;26.71
68511;SHT31;55512;50.102;19.958;2023-05-23T14:29:22;30.91;26.36
68511;SHT31;55512;50.102;19.958;2023-05-23T14:31:48;30.76;26.30
68511;SHT31;55512;50.102;19.958;2023-05-23T14:34:14;30.47;26.32
68511;SHT31;55512;50.102;19.958;2023-05-23T14:36:39;30.20;26.68
68511;SHT31;55512;50.102;19.958;2023-05-23T14:39:05;29.97;27.07
68511;SHT31;55512;50.102;19.958;2023-05-23T14:41:31;29.77;27.70
68511;SHT31;55512;50.102;19.958;2023-05-23T14:43:57;29.50;27.69
68511;SHT31;55512;50.102;19.958;2023-05-23T14:46:23;29.24;27.84
68511;SHT31;55512;50.102;19.958;2023-05-23T14:48:48;29.04;28.19
68511;SHT31;55512;50.102;19.958;2023-05-23T14:51:14;28.81;28.16
68511;SHT31;55512;50.102;19.958;2023-05-23T14:53:39;28.58;28.43
68511;SHT31;55512;50.102;19.958;2023-05-23T14:56:05;28.41;28.72
68511;SHT31;55512;50.102;19.958;2023-05-23T14:58:31;28.27;29.49
68511;SHT31;55512;50.102;19.958;2023-05-23T15:00:57;28.13;29.54
68511;SHT31;55512;50.102;19.958;2023-05-23T15:03:23;28.06;31.08
68511;SHT31;55512;50.102;19.958;2023-05-23T15:05:48;27.98;33.17
68511;SHT31;55512;50.102;19.958;2023-05-23T15:08:14;27.83;34.88
68511;SHT31;55512;50.102;19.958;2023-05-23T15:10:42;27.50;35.80
68511;SHT31;55512;50.102;19.958;2023-05-23T15:13:09;27.34;36.50
68511;SHT31;55512;50.102;19.958;2023-05-23T15:15:35;27.17;37.19
68511;SHT31;55512;50.102;19.958;2023-05-23T15:18:02;27.07;37.46
68511;SHT31;55512;50.102;19.958;2023-05-23T15:20:33;26.97;37.82
68511;SHT31;55512;50.102;19.958;2023-05-23T15:23:03;26.87;38.11
68511;SHT31;55512;50.102;19.958;2023-05-23T15:25:29;26.79;38.32
68511;SHT31;55512;50.102;19.958;2023-05-23T15:27:55;26.71;38.60
68511;SHT31;55512;50.102;19.958;2023-05-23T15:30:21;26.63;38.78
68511;SHT31;55512;50.102;19.958;2023-05-23T15:32:47;26.54;39.73
68511;SHT31;55512;50.102;19.958;2023-05-23T15:35:12;26.35;40.67
68511;SHT31;55512;50.102;19.958;2023-05-23T15:37:39;26.14;41.24
68511;SHT31;55512;50.102;19.958;2023-05-23T15:40:06;25.94;41.87
68511;SHT31;55512;50.102;19.958;2023-05-23T15:42:33;25.72;42.19
68511;SHT31;55512;50.102;19.958;2023-05-23T15:45:00;25.53;42.50
68511;SHT31;55512;50.102;19.958;2023-05-23T15:47:26;25.32;42.93
68511;SHT31;55512;50.102;19.958;2023-05-23T15:49:52;25.17;43.47
68511;SHT31;55512;50.102;19.958;2023-05-23T15:52:17;24.99;43.94
68511;SHT31;55512;50.102;19.958;2023-05-23T15:54:43;24.83;44.54
68511;SHT31;55512;50.102;19.958;2023-05-23T15:57:09;24.71;44.78
68511;SHT31;55512;50.102;19.958;2023-05-23T15:59:35;24.62;45.01
68511;SHT31;55512;50.102;19.958;2023-05-23T16:02:01;24.52;45.20
68511;SHT31;55512;50.102;19.958;2023-05-23T16:04:30;24.41;45.68